sensor_id;sensor_type;location;lat;lon;timestamp;P1;durP1;ratioP1;P2;durP2;ratioP2
35418;SDS011;21525;41.240;16.500;2024-02-04T00:01:40;29.17;;;16.90;;
35418;SDS011;21525;41.240;16.500;2024-02-04T00:04:06;30.38;;;16.90;;
35418;SDS011;21525;41.240;16.500;2024-02-04T00:06:32;30.73;;;17.73;;
35418;SDS011;21525;41.240;16.500;2024-02-04T00:08:57;30.60;;;17.52;;
35418;SDS011;21525;41.240;16.500;2024-02-04T00:11:23;27.85;;;16.52;;
35418;SDS011;21525;41.240;16.500;2024-02-04T00:13:49;32.38;;;17.35;;
35418;SDS011;21525;41.240;16.500;2024-02-04T00:16:15;31.98;;;17.58;;
35418;SDS011;21525;41.240;16.500;2024-02-04T00:18:41;33.47;;;16.52;;
35418;SDS011;21525;41.240;16.500;2024-02-04T00:21:06;32.03;;;17.90;;
35418;SDS011;21525;41.240;16.500;2024-02-04T00:23:32;31.30;;;18.05;;
35418;SDS011;21525;41.240;16.500;2024-02-04T00:25:58;28.08;;;15.93;;
35418;SDS011;21525;41.240;16.500;2024-02-04T00:28:23;28.08;;;16.00;;
35418;SDS011;21525;41.240;16.500;2024-02-04T00:30:49;27.48;;;15.02;;
35418;SDS011;21525;41.240;16.500;2024-02-04T00:33:18;30.23;;;15.98;;
35418;SDS011;21525;41.240;16.500;2024-02-04T00:35:43;28.00;;;15.60;;
35418;SDS011;21525;41.240;16.500;2024-02-04T00:38:09;30.65;;;16.52;;
35418;SDS011;21525;41.240;16.500;2024-02-04T00:40:35;28.65;;;17.10;;
35418;SDS011;21525;41.240;16.500;2024-02-04T00:43:01;29.40;;;16.75;;
35418;SDS011;21525;41.240;16.500;2024-02-04T00:45:26;26.75;;;15.70;;
35418;SDS011;21525;41.240;16.500;2024-02-04T00:47:52;26.75;;;15.15;;
35418;SDS011;21525;41.240;16.500;2024-02-04T00:50:18;27.48;;;15.82;;
35418;SDS011;21525;41.240;16.500;2024-02-04T00:52:44;31.00;;;17.70;;
35418;SDS011;21525;41.240;16.500;2024-02-04T00:55:10;30.98;;;16.92;;
35418;SDS011;21525;41.240;16.500;2024-02-04T00:57:36;26.25;;;15.98;;
35418;SDS011;21525;41.240;16.500;2024-02-04T01:00:02;28.08;;;16.10;;
35418;SDS011;21525;41.240;16.500;2024-02-04T01:02:29;32.67;;;16.85;;
35418;SDS011;21525;41.240;16.500;2024-02-04T01:04:54;28.60;;;15.10;;
35418;SDS011;21525;41.240;16.500;2024-02-04T01:07:20;27.92;;;15.27;;
35418;SDS011;21525;41.240;16.500;2024-02-04T01:09:46;31.48;;;15.40;;
35418;SDS011;21525;41.240;16.500;2024-02-04T01:12:12;32.35;;;16.45;;
35418;SDS011;21525;41.240;16.500;2024-02-04T01:14:37;29.00;;;16.10;;
35418;SDS011;21525;41.240;16.500;2024-02-04T01:17:03;28.25;;;16.35;;
35418;SDS011;21525;41.240;16.500;2024-02-04T01:19:29;29.25;;;16.10;;
35418;SDS011;21525;41.240;16.500;2024-02-04T01:21:55;29.85;;;16.25;;
35418;SDS011;21525;41.240;16.500;2024-02-04T01:24:20;26.58;;;14.93;;
35418;SDS011;21525;41.240;16.500;2024-02-04T01:26:46;28.67;;;15.73;;
35418;SDS011;21525;41.240;16.500;2024-02-04T01:29:12;32.42;;;16.23;;
35418;SDS011;21525;41.240;16.500;2024-02-04T01:31:37;28.90;;;15.48;;
35418;SDS011;21525;41.240;16.500;2024-02-04T01:34:03;32.65;;;17.50;;
35418;SDS011;21525;41.240;16.500;2024-02-04T01:36:29;32.30;;;17.02;;
35418;SDS011;21525;41.240;16.500;2024-02-04T01:38:55;26.83;;;15.98;;
35418;SDS011;21525;41.240;16.500;2024-02-04T01:41:21;25.60;;;13.82;;
35418;SDS011;21525;41.240;16.500;2024-02-04T01:43:47;24.60;;;15.27;;
35418;SDS011;21525;41.240;16.500;2024-02-04T01:46:13;25.50;;;13.80;;
35418;SDS011;21525;41.240;16.500;2024-02-04T01:48:39;24.98;;;14.52;;
35418;SDS011;21525;41.240;16.500;2024-02-04T01:51:05;28.40;;;15.35;;
35418;SDS011;21525;41.240;16.500;2024-02-04T01:53:31;26.85;;;15.32;;
35418;SDS011;21525;41.240;16.500;2024-02-04T01:55:59;27.35;;;15.57;;
35418;SDS011;21525;41.240;16.500;2024-02-04T01:58:25;25.00;;;14.48;;
35418;SDS011;21525;41.240;16.500;2024-02-04T02:00:51;32.13;;;15.18;;
35418;SDS011;21525;41.240;16.500;2024-02-04T02:03:18;27.83;;;14.75;;
35418;SDS011;21525;41.240;16.500;2024-02-04T02:05:45;27.70;;;15.07;;
35418;SDS011;21525;41.240;16.500;2024-02-04T02:08:11;28.30;;;13.98;;
35418;SDS011;21525;41.240;16.500;2024-02-04T02:10:37;29.10;;;14.95;;
35418;SDS011;21525;41.240;16.500;2024-02-04T02:16:02;25.77;;;14.55;;
35418;SDS011;21525;41.240;16.500;2024-02-04T02:18:43;25.02;;;14.70;;
35418;SDS011;21525;41.240;16.500;2024-02-04T02:21:50;24.15;;;14.10;;
35418;SDS011;21525;41.240;16.500;2024-02-04T02:24:34;25.40;;;13.27;;
35418;SDS011;21525;41.240;16.500;2024-02-04T02:27:01;25.15;;;13.75;;
35418;SDS011;21525;41.240;16.500;2024-02-04T02:29:27;24.80;;;12.80;;
35418;SDS011;21525;41.240;16.500;2024-02-04T02:31:53;24.33;;;13.35;;
35418;SDS011;21525;41.240;16.500;2024-02-04T02:34:19;24.08;;;13.93;;
35418;SDS011;21525;41.240;16.500;2024-02-04T02:36:45;26.42;;;13.43;;
35418;SDS011;21525;41.240;16.500;2024-02-04T02:39:21;23.25;;;13.70;;
35418;SDS011;21525;41.240;16.500;2024-02-04T02:41:50;21.95;;;12.98;;
35418;SDS011;21525;41.240;16.500;2024-02-04T02:44:21;23.58;;;13.20;;
35418;SDS011;21525;41.240;16.500;2024-02-04T02:46:50;24.05;;;13.13;;
35418;SDS011;21525;41.240;16.500;2024-02-04T02:49:16;23.13;;;13.05;;
35418;SDS011;21525;41.240;16.500;2024-02-04T02:51:42;21.08;;;12.65;;
35418;SDS011;21525;41.240;16.500;2024-02-04T02:54:08;21.92;;;12.82;;
35418;SDS011;21525;41.240;16.500;2024-02-04T02:56:34;20.88;;;13.10;;
35418;SDS011;21525;41.240;16.500;2024-02-04T02:58:59;23.90;;;12.63;;
35418;SDS011;21525;41.240;16.500;2024-02-04T03:01:25;24.60;;;12.27;;
35418;SDS011;21525;41.240;16.500;2024-02-04T03:03:51;21.92;;;12.60;;
35418;SDS011;21525;41.240;16.500;2024-02-04T03:06:17;18.92;;;11.32;;
35418;SDS011;21525;41.240;16.500;2024-02-04T03:08:42;19.65;;;12.30;;
35418;SDS011;21525;41.240;16.500;2024-02-04T03:11:08;21.58;;;13.05;;
35418;SDS011;21525;41.240;16.500;2024-02-04T03:13:34;21.35;;;12.15;;
35418;SDS011;21525;41.240;16.500;2024-02-04T03:16:03;27.67;;;13.48;;
35418;SDS011;21525;41.240;16.500;2024-02-04T03:18:29;22.55;;;11.95;;
35418;SDS011;21525;41.240;16.500;2024-02-04T03:20:54;22.13;;;13.40;;
35418;SDS011;21525;41.240;16.500;2024-02-04T03:23:20;22.23;;;13.60;;
35418;SDS011;21525;41.240;16.500;2024-02-04T03:25:46;27.65;;;13.95;;
35418;SDS011;21525;41.240;16.500;2024-02-04T03:28:12;33.20;;;20.27;;
35418;SDS011;21525;41.240;16.500;2024-02-04T03:30:38;35.08;;;22.77;;
35418;SDS011;21525;41.240;16.500;2024-02-04T03:33:04;30.27;;;20.88;;
35418;SDS011;21525;41.240;16.500;2024-02-04T03:35:29;25.58;;;16.83;;
35418;SDS011;21525;41.240;16.500;2024-02-04T03:37:55;19.80;;;10.52;;
35418;SDS011;21525;41.240;16.500;2024-02-04T03:40:21;20.15;;;10.82;;
35418;SDS011;21525;41.240;16.500;2024-02-04T03:42:50;22.25;;;10.48;;
35418;SDS011;21525;41.240;16.500;2024-02-04T03:45:15;17.75;;;11.25;;
35418;SDS011;21525;41.240;16.500;2024-02-04T03:47:41;18.65;;;10.57;;
35418;SDS011;21525;41.240;16.500;2024-02-04T03:50:07;16.35;;;10.35;;
35418;SDS011;21525;41.240;16.500;2024-02-04T03:52:33;22.58;;;10.93;;
35418;SDS011;21525;41.240;16.500;2024-02-04T03:54:59;20.65;;;9.98;;
35418;SDS011;21525;41.240;16.500;2024-02-04T03:57:27;17.55;;;9.70;;
35418;SDS011;21525;41.240;16.500;2024-02-04T03:59:53;16.98;;;9.60;;
35418;SDS011;21525;41.240;16.500;2024-02-04T04:02:19;17.98;;;10.25;;
35418;SDS011;21525;41.240;16.500;2024-02-04T04:04:44;19.10;;;10.15;;
35418;SDS011;21525;41.240;16.500;2024-02-04T04:07:12;16.00;;;9.38;;
35418;SDS011;21525;41.240;16.500;2024-02-04T04:09:38;18.58;;;9.98;;
35418;SDS011;21525;41.240;16.500;2024-02-04T04:12:04;16.15;;;9.05;;
35418;SDS011;21525;41.240;16.500;2024-02-04T04:14:30;16.52;;;9.35;;
35418;SDS011;21525;41.240;16.500;2024-02-04T04:16:56;18.02;;;9.68;;
35418;SDS011;21525;41.240;16.500;2024-02-04T04:19:22;15.60;;;9.38;;
35418;SDS011;21525;41.240;16.500;2024-02-04T04:21:47;15.10;;;9.23;;
35418;SDS011;21525;41.240;16.500;2024-02-04T04:24:13;19.77;;;10.00;;
35418;SDS011;21525;41.240;16.500;2024-02-04T04:26:41;17.25;;;9.30;;
35418;SDS011;21525;41.240;16.500;2024-02-04T04:29:06;23.27;;;11.23;;
35418;SDS011;21525;41.240;16.500;2024-02-04T04:31:32;20.02;;;10.60;;
35418;SDS011;21525;41.240;16.500;2024-02-04T04:33:58;16.55;;;9.57;;
35418;SDS011;21525;41.240;16.500;2024-02-04T04:36:23;15.43;;;9.55;;
35418;SDS011;21525;41.240;16.500;2024-02-04T04:38:49;16.65;;;9.30;;
35418;SDS011;21525;41.240;16.500;2024-02-04T04:41:16;18.88;;;10.80;;
35418;SDS011;21525;41.240;16.500;2024-02-04T04:43:42;26.65;;;11.30;;
35418;SDS011;21525;41.240;16.500;2024-02-04T04:46:08;23.33;;;11.73;;
35418;SDS011;21525;41.240;16.500;2024-02-04T04:48:33;26.50;;;11.20;;
35418;SDS011;21525;41.240;16.500;2024-02-04T04:50:59;21.50;;;10.80;;
35418;SDS011;21525;41.240;16.500;2024-02-04T04:53:26;20.10;;;10.48;;
35418;SDS011;21525;41.240;16.500;2024-02-04T04:55:52;20.33;;;9.32;;
35418;SDS011;21525;41.240;16.500;2024-02-04T04:58:17;19.30;;;10.20;;
35418;SDS011;21525;41.240;16.500;2024-02-04T05:00:43;18.55;;;10.57;;
35418;SDS011;21525;41.240;16.500;2024-02-04T05:03:09;18.30;;;10.80;;
35418;SDS011;21525;41.240;16.500;2024-02-04T05:05:34;14.32;;;8.43;;
35418;SDS011;21525;41.240;16.500;2024-02-04T05:08:00;14.70;;;8.73;;
35418;SDS011;21525;41.240;16.500;2024-02-04T05:10:26;18.52;;;9.70;;
35418;SDS011;21525;41.240;16.500;2024-02-04T05:12:52;19.98;;;10.15;;
35418;SDS011;21525;41.240;16.500;2024-02-04T05:15:17;16.77;;;9.32;;
35418;SDS011;21525;41.240;16.500;2024-02-04T05:17:43;14.98;;;8.07;;
35418;SDS011;21525;41.240;16.500;2024-02-04T05:20:09;22.75;;;9.23;;
35418;SDS011;21525;41.240;16.500;2024-02-04T05:22:35;20.35;;;10.88;;
35418;SDS011;21525;41.240;16.500;2024-02-04T05:25:01;22.35;;;10.27;;
35418;SDS011;21525;41.240;16.500;2024-02-04T05:27:27;17.27;;;8.50;;
35418;SDS011;21525;41.240;16.500;2024-02-04T05:29:52;18.85;;;9.02;;
35418;SDS011;21525;41.240;16.500;2024-02-04T05:32:18;18.13;;;8.02;;
35418;SDS011;21525;41.240;16.500;2024-02-04T05:34:44;16.33;;;8.82;;
35418;SDS011;21525;41.240;16.500;2024-02-04T05:37:09;20.08;;;11.80;;
35418;SDS011;21525;41.240;16.500;2024-02-04T05:39:35;23.33;;;11.15;;
35418;SDS011;21525;41.240;16.500;2024-02-04T05:42:01;19.80;;;10.35;;
35418;SDS011;21525;41.240;16.500;2024-02-04T05:44:27;22.08;;;9.73;;
35418;SDS011;21525;41.240;16.500;2024-02-04T05:46:52;22.13;;;9.85;;
35418;SDS011;21525;41.240;16.500;2024-02-04T05:49:18;19.98;;;9.95;;
35418;SDS011;21525;41.240;16.500;2024-02-04T05:51:44;17.63;;;9.50;;
35418;SDS011;21525;41.240;16.500;2024-02-04T05:54:10;13.65;;;8.15;;
35418;SDS011;21525;41.240;16.500;2024-02-04T05:56:36;15.43;;;9.45;;
35418;SDS011;21525;41.240;16.500;2024-02-04T05:59:02;18.08;;;10.23;;
35418;SDS011;21525;41.240;16.500;2024-02-04T06:01:27;18.80;;;12.05;;
35418;SDS011;21525;41.240;16.500;2024-02-04T06:03:53;19.30;;;10.52;;
35418;SDS011;21525;41.240;16.500;2024-02-04T06:06:19;19.40;;;10.60;;
35418;SDS011;21525;41.240;16.500;2024-02-04T06:08:45;20.65;;;10.68;;
35418;SDS011;21525;41.240;16.500;2024-02-04T06:11:12;28.42;;;12.68;;
35418;SDS011;21525;41.240;16.500;2024-02-04T06:13:40;24.00;;;12.15;;
35418;SDS011;21525;41.240;16.500;2024-02-04T06:16:07;28.85;;;12.23;;
35418;SDS011;21525;41.240;16.500;2024-02-04T06:18:34;24.90;;;11.73;;
35418;SDS011;21525;41.240;16.500;2024-02-04T06:21:03;27.98;;;12.93;;
35418;SDS011;21525;41.240;16.500;2024-02-04T06:23:29;35.50;;;14.57;;
35418;SDS011;21525;41.240;16.500;2024-02-04T06:25:55;27.98;;;12.40;;
35418;SDS011;21525;41.240;16.500;2024-02-04T06:28:21;28.52;;;14.80;;
35418;SDS011;21525;41.240;16.500;2024-02-04T06:30:46;28.00;;;14.18;;
35418;SDS011;21525;41.240;16.500;2024-02-04T06:33:12;25.67;;;13.73;;
35418;SDS011;21525;41.240;16.500;2024-02-04T06:35:38;31.40;;;15.45;;
35418;SDS011;21525;41.240;16.500;2024-02-04T06:38:03;33.95;;;16.83;;
35418;SDS011;21525;41.240;16.500;2024-02-04T06:40:30;28.30;;;15.20;;
35418;SDS011;21525;41.240;16.500;2024-02-04T06:42:56;29.67;;;16.13;;
35418;SDS011;21525;41.240;16.500;2024-02-04T06:45:21;33.75;;;17.48;;
35418;SDS011;21525;41.240;16.500;2024-02-04T06:47:47;37.40;;;16.25;;
35418;SDS011;21525;41.240;16.500;2024-02-04T06:50:13;22.13;;;12.65;;
35418;SDS011;21525;41.240;16.500;2024-02-04T06:52:39;28.02;;;15.55;;
35418;SDS011;21525;41.240;16.500;2024-02-04T06:55:07;32.28;;;15.73;;
35418;SDS011;21525;41.240;16.500;2024-02-04T06:57:34;34.85;;;21.77;;
35418;SDS011;21525;41.240;16.500;2024-02-04T06:59:59;34.00;;;18.23;;
35418;SDS011;21525;41.240;16.500;2024-02-04T07:02:25;34.08;;;16.92;;
35418;SDS011;21525;41.240;16.500;2024-02-04T07:04:51;32.63;;;17.02;;
35418;SDS011;21525;41.240;16.500;2024-02-04T07:07:17;40.80;;;19.52;;
35418;SDS011;21525;41.240;16.500;2024-02-04T07:09:43;43.35;;;18.70;;
35418;SDS011;21525;41.240;16.500;2024-02-04T07:12:09;33.92;;;18.02;;
35418;SDS011;21525;41.240;16.500;2024-02-04T07:14:35;35.17;;;18.83;;
35418;SDS011;21525;41.240;16.500;2024-02-04T07:17:00;35.80;;;18.42;;
35418;SDS011;21525;41.240;16.500;2024-02-04T07:19:26;37.13;;;20.70;;
35418;SDS011;21525;41.240;16.500;2024-02-04T07:21:52;37.70;;;20.65;;
35418;SDS011;21525;41.240;16.500;2024-02-04T07:24:17;39.03;;;20.30;;
35418;SDS011;21525;41.240;16.500;2024-02-04T07:26:45;39.10;;;22.30;;
35418;SDS011;21525;41.240;16.500;2024-02-04T07:29:12;36.08;;;21.75;;
35418;SDS011;21525;41.240;16.500;2024-02-04T07:31:38;47.88;;;20.52;;
35418;SDS011;21525;41.240;16.500;2024-02-04T07:34:04;42.15;;;22.92;;
35418;SDS011;21525;41.240;16.500;2024-02-04T07:36:30;38.08;;;21.20;;
35418;SDS011;21525;41.240;16.500;2024-02-04T07:38:56;38.60;;;21.45;;
35418;SDS011;21525;41.240;16.500;2024-02-04T07:41:21;46.25;;;24.75;;
35418;SDS011;21525;41.240;16.500;2024-02-04T07:43:47;52.83;;;28.45;;
35418;SDS011;21525;41.240;16.500;2024-02-04T07:46:13;47.45;;;25.40;;
35418;SDS011;21525;41.240;16.500;2024-02-04T07:48:39;40.92;;;24.30;;
35418;SDS011;21525;41.240;16.500;2024-02-04T07:51:06;45.95;;;24.38;;
35418;SDS011;21525;41.240;16.500;2024-02-04T07:53:33;42.42;;;25.10;;
35418;SDS011;21525;41.240;16.500;2024-02-04T07:55:59;42.08;;;25.52;;
35418;SDS011;21525;41.240;16.500;2024-02-04T07:58:26;45.00;;;25.00;;
35418;SDS011;21525;41.240;16.500;2024-02-04T08:00:52;43.10;;;25.67;;
35418;SDS011;21525;41.240;16.500;2024-02-04T08:03:18;37.33;;;22.95;;
35418;SDS011;21525;41.240;16.500;2024-02-04T08:05:44;35.85;;;22.75;;
35418;SDS011;21525;41.240;16.500;2024-02-04T08:08:10;39.25;;;23.50;;
35418;SDS011;21525;41.240;16.500;2024-02-04T08:10:35;37.80;;;24.02;;
35418;SDS011;21525;41.240;16.500;2024-02-04T08:13:01;28.88;;;20.48;;
35418;SDS011;21525;41.240;16.500;2024-02-04T08:15:27;32.35;;;22.10;;
35418;SDS011;21525;41.240;16.500;2024-02-04T08:17:53;36.78;;;25.30;;
35418;SDS011;21525;41.240;16.500;2024-02-04T08:20:19;38.72;;;25.17;;
35418;SDS011;21525;41.240;16.500;2024-02-04T08:22:46;31.38;;;23.20;;
35418;SDS011;21525;41.240;16.500;2024-02-04T08:25:12;40.05;;;25.98;;
35418;SDS011;21525;41.240;16.500;2024-02-04T08:27:38;34.47;;;24.00;;
35418;SDS011;21525;41.240;16.500;2024-02-04T08:30:05;41.90;;;25.60;;
35418;SDS011;21525;41.240;16.500;2024-02-04T08:32:31;38.17;;;25.77;;
35418;SDS011;21525;41.240;16.500;2024-02-04T08:34:57;33.92;;;23.23;;
35418;SDS011;21525;41.240;16.500;2024-02-04T08:37:22;36.40;;;24.27;;
35418;SDS011;21525;41.240;16.500;2024-02-04T08:39:48;34.03;;;23.73;;
35418;SDS011;21525;41.240;16.500;2024-02-04T08:42:15;35.80;;;23.55;;
35418;SDS011;21525;41.240;16.500;2024-02-04T08:44:41;36.05;;;23.00;;
35418;SDS011;21525;41.240;16.500;2024-02-04T08:47:07;36.03;;;23.20;;
35418;SDS011;21525;41.240;16.500;2024-02-04T08:49:38;36.35;;;23.92;;
35418;SDS011;21525;41.240;16.500;2024-02-04T08:52:03;35.50;;;23.75;;
35418;SDS011;21525;41.240;16.500;2024-02-04T08:54:29;38.15;;;22.65;;
35418;SDS011;21525;41.240;16.500;2024-02-04T08:56:55;36.03;;;21.95;;
35418;SDS011;21525;41.240;16.500;2024-02-04T08:59:20;37.08;;;23.30;;
35418;SDS011;21525;41.240;16.500;2024-02-04T09:01:46;34.55;;;23.38;;
35418;SDS011;21525;41.240;16.500;2024-02-04T09:04:12;39.92;;;23.98;;
35418;SDS011;21525;41.240;16.500;2024-02-04T09:06:38;31.25;;;21.90;;
35418;SDS011;21525;41.240;16.500;2024-02-04T09:09:03;36.78;;;24.65;;
35418;SDS011;21525;41.240;16.500;2024-02-04T09:11:29;38.53;;;24.92;;
35418;SDS011;21525;41.240;16.500;2024-02-04T09:13:55;33.10;;;22.55;;
35418;SDS011;21525;41.240;16.500;2024-02-04T09:16:21;31.58;;;21.30;;
35418;SDS011;21525;41.240;16.500;2024-02-04T09:18:46;37.17;;;22.80;;
35418;SDS011;21525;41.240;16.500;2024-02-04T09:21:13;27.23;;;18.55;;
35418;SDS011;21525;41.240;16.500;2024-02-04T09:23:39;30.98;;;20.15;;
35418;SDS011;21525;41.240;16.500;2024-02-04T09:26:05;30.70;;;20.80;;
35418;SDS011;21525;41.240;16.500;2024-02-04T09:28:30;32.03;;;20.42;;
35418;SDS011;21525;41.240;16.500;2024-02-04T09:30:57;33.58;;;21.83;;
35418;SDS011;21525;41.240;16.500;2024-02-04T09:33:22;29.35;;;20.63;;
35418;SDS011;21525;41.240;16.500;2024-02-04T09:35:48;29.27;;;20.30;;
35418;SDS011;21525;41.240;16.500;2024-02-04T09:38:14;28.02;;;20.02;;
35418;SDS011;21525;41.240;16.500;2024-02-04T09:40:40;26.50;;;18.67;;
35418;SDS011;21525;41.240;16.500;2024-02-04T09:43:07;25.45;;;18.85;;
35418;SDS011;21525;41.240;16.500;2024-02-04T09:45:33;26.98;;;17.80;;
35418;SDS011;21525;41.240;16.500;2024-02-04T09:48:00;24.23;;;16.77;;
35418;SDS011;21525;41.240;16.500;2024-02-04T09:50:26;24.73;;;14.80;;
35418;SDS011;21525;41.240;16.500;2024-02-04T09:52:53;22.17;;;15.02;;
35418;SDS011;21525;41.240;16.500;2024-02-04T09:55:23;23.15;;;15.32;;
35418;SDS011;21525;41.240;16.500;2024-02-04T09:57:50;20.92;;;15.05;;
35418;SDS011;21525;41.240;16.500;2024-02-04T10:00:18;24.33;;;16.33;;
35418;SDS011;21525;41.240;16.500;2024-02-04T10:02:48;22.70;;;15.18;;
35418;SDS011;21525;41.240;16.500;2024-02-04T10:05:15;23.77;;;15.35;;
35418;SDS011;21525;41.240;16.500;2024-02-04T10:07:41;21.65;;;14.85;;
35418;SDS011;21525;41.240;16.500;2024-02-04T10:10:07;22.77;;;15.20;;
35418;SDS011;21525;41.240;16.500;2024-02-04T10:12:33;20.77;;;14.30;;
35418;SDS011;21525;41.240;16.500;2024-02-04T10:15:01;22.25;;;15.35;;
35418;SDS011;21525;41.240;16.500;2024-02-04T10:17:30;24.30;;;15.75;;
35418;SDS011;21525;41.240;16.500;2024-02-04T10:19:56;23.52;;;14.15;;
35418;SDS011;21525;41.240;16.500;2024-02-04T10:22:22;26.00;;;14.27;;
35418;SDS011;21525;41.240;16.500;2024-02-04T10:24:48;23.40;;;14.77;;
35418;SDS011;21525;41.240;16.500;2024-02-04T10:27:15;23.02;;;14.88;;
35418;SDS011;21525;41.240;16.500;2024-02-04T10:29:41;24.92;;;16.83;;
35418;SDS011;21525;41.240;16.500;2024-02-04T10:32:06;24.45;;;16.35;;
35418;SDS011;21525;41.240;16.500;2024-02-04T10:34:37;25.05;;;14.88;;
35418;SDS011;21525;41.240;16.500;2024-02-04T10:37:03;25.73;;;16.58;;
35418;SDS011;21525;41.240;16.500;2024-02-04T10:39:29;28.20;;;16.90;;
35418;SDS011;21525;41.240;16.500;2024-02-04T10:41:55;26.10;;;17.30;;
35418;SDS011;21525;41.240;16.500;2024-02-04T10:44:27;24.00;;;16.65;;
35418;SDS011;21525;41.240;16.500;2024-02-04T10:46:57;28.23;;;19.00;;
35418;SDS011;21525;41.240;16.500;2024-02-04T10:49:29;30.02;;;20.90;;
35418;SDS011;21525;41.240;16.500;2024-02-04T10:51:55;30.88;;;21.85;;
35418;SDS011;21525;41.240;16.500;2024-02-04T10:54:23;28.60;;;20.77;;
35418;SDS011;21525;41.240;16.500;2024-02-04T10:56:56;28.77;;;19.05;;
35418;SDS011;21525;41.240;16.500;2024-02-04T10:59:28;29.05;;;20.70;;
35418;SDS011;21525;41.240;16.500;2024-02-04T11:01:56;28.58;;;19.33;;
35418;SDS011;21525;41.240;16.500;2024-02-04T11:04:22;29.88;;;19.70;;
35418;SDS011;21525;41.240;16.500;2024-02-04T11:06:49;32.17;;;20.95;;
35418;SDS011;21525;41.240;16.500;2024-02-04T11:09:16;34.30;;;20.23;;
35418;SDS011;21525;41.240;16.500;2024-02-04T11:11:43;31.58;;;20.60;;
35418;SDS011;21525;41.240;16.500;2024-02-04T11:14:13;34.30;;;20.73;;
35418;SDS011;21525;41.240;16.500;2024-02-04T11:19:27;28.67;;;19.33;;
35418;SDS011;21525;41.240;16.500;2024-02-04T11:27:07;33.10;;;21.60;;
35418;SDS011;21525;41.240;16.500;2024-02-04T11:29:33;29.52;;;20.83;;
35418;SDS011;21525;41.240;16.500;2024-02-04T11:32:01;32.40;;;21.05;;
35418;SDS011;21525;41.240;16.500;2024-02-04T11:34:28;31.33;;;21.88;;
35418;SDS011;21525;41.240;16.500;2024-02-04T11:36:54;31.20;;;21.73;;
35418;SDS011;21525;41.240;16.500;2024-02-04T11:39:21;29.13;;;19.73;;
35418;SDS011;21525;41.240;16.500;2024-02-04T11:41:48;27.92;;;18.48;;
35418;SDS011;21525;41.240;16.500;2024-02-04T11:44:24;27.45;;;18.35;;
35418;SDS011;21525;41.240;16.500;2024-02-04T11:46:51;26.13;;;18.60;;
35418;SDS011;21525;41.240;16.500;2024-02-04T11:49:17;23.48;;;16.35;;
35418;SDS011;21525;41.240;16.500;2024-02-04T11:51:50;30.60;;;17.40;;
35418;SDS011;21525;41.240;16.500;2024-02-04T11:54:17;25.63;;;16.65;;
35418;SDS011;21525;41.240;16.500;2024-02-04T11:56:45;25.63;;;15.93;;
35418;SDS011;21525;41.240;16.500;2024-02-04T11:59:19;24.50;;;16.50;;
35418;SDS011;21525;41.240;16.500;2024-02-04T12:01:49;19.88;;;13.68;;
35418;SDS011;21525;41.240;16.500;2024-02-04T12:04:19;22.65;;;15.27;;
35418;SDS011;21525;41.240;16.500;2024-02-04T12:06:46;24.48;;;14.90;;
35418;SDS011;21525;41.240;16.500;2024-02-04T12:09:12;22.13;;;15.88;;
35418;SDS011;21525;41.240;16.500;2024-02-04T12:11:43;21.05;;;14.13;;
35418;SDS011;21525;41.240;16.500;2024-02-04T12:14:09;22.10;;;14.82;;
35418;SDS011;21525;41.240;16.500;2024-02-04T12:16:35;23.83;;;14.85;;
35418;SDS011;21525;41.240;16.500;2024-02-04T12:19:02;22.63;;;14.68;;
35418;SDS011;21525;41.240;16.500;2024-02-04T12:21:31;25.15;;;15.57;;
35418;SDS011;21525;41.240;16.500;2024-02-04T12:23:58;26.08;;;14.50;;
35418;SDS011;21525;41.240;16.500;2024-02-04T12:26:24;27.05;;;15.68;;
35418;SDS011;21525;41.240;16.500;2024-02-04T12:28:50;24.70;;;14.95;;
35418;SDS011;21525;41.240;16.500;2024-02-04T12:31:17;23.00;;;14.02;;
35418;SDS011;21525;41.240;16.500;2024-02-04T12:33:51;19.85;;;13.82;;
35418;SDS011;21525;41.240;16.500;2024-02-04T12:36:29;21.17;;;14.95;;
35418;SDS011;21525;41.240;16.500;2024-02-04T12:38:57;22.60;;;14.00;;
35418;SDS011;21525;41.240;16.500;2024-02-04T12:41:25;23.35;;;15.02;;
35418;SDS011;21525;41.240;16.500;2024-02-04T12:43:58;24.55;;;14.05;;
35418;SDS011;21525;41.240;16.500;2024-02-04T12:46:25;22.35;;;14.23;;
35418;SDS011;21525;41.240;16.500;2024-02-04T12:48:52;20.60;;;13.60;;
35418;SDS011;21525;41.240;16.500;2024-02-04T12:54:01;26.50;;;15.27;;
35418;SDS011;21525;41.240;16.500;2024-02-04T12:59:29;20.52;;;13.95;;
35418;SDS011;21525;41.240;16.500;2024-02-04T13:02:02;20.60;;;14.18;;
35418;SDS011;21525;41.240;16.500;2024-02-04T13:04:36;21.58;;;14.45;;
35418;SDS011;21525;41.240;16.500;2024-02-04T13:07:07;21.95;;;14.05;;
35418;SDS011;21525;41.240;16.500;2024-02-04T13:09:38;19.90;;;14.20;;
35418;SDS011;21525;41.240;16.500;2024-02-04T13:12:04;20.73;;;12.80;;
35418;SDS011;21525;41.240;16.500;2024-02-04T13:14:32;17.33;;;12.48;;
35418;SDS011;21525;41.240;16.500;2024-02-04T13:16:58;19.58;;;13.30;;
35418;SDS011;21525;41.240;16.500;2024-02-04T13:19:24;23.08;;;13.63;;
35418;SDS011;21525;41.240;16.500;2024-02-04T13:21:49;22.20;;;12.63;;
35418;SDS011;21525;41.240;16.500;2024-02-04T13:24:15;21.13;;;14.13;;
35418;SDS011;21525;41.240;16.500;2024-02-04T13:26:41;23.25;;;13.48;;
35418;SDS011;21525;41.240;16.500;2024-02-04T13:29:07;20.40;;;13.55;;
35418;SDS011;21525;41.240;16.500;2024-02-04T13:31:33;23.17;;;13.38;;
35418;SDS011;21525;41.240;16.500;2024-02-04T13:33:58;20.08;;;12.52;;
35418;SDS011;21525;41.240;16.500;2024-02-04T13:36:25;19.30;;;13.52;;
35418;SDS011;21525;41.240;16.500;2024-02-04T13:38:51;24.20;;;14.30;;
35418;SDS011;21525;41.240;16.500;2024-02-04T13:41:17;20.10;;;12.43;;
35418;SDS011;21525;41.240;16.500;2024-02-04T13:43:42;21.80;;;13.55;;
35418;SDS011;21525;41.240;16.500;2024-02-04T13:46:09;22.20;;;13.75;;
35418;SDS011;21525;41.240;16.500;2024-02-04T13:48:35;20.77;;;13.23;;
35418;SDS011;21525;41.240;16.500;2024-02-04T13:51:01;26.55;;;13.45;;
35418;SDS011;21525;41.240;16.500;2024-02-04T13:53:27;21.13;;;12.27;;
35418;SDS011;21525;41.240;16.500;2024-02-04T13:55:52;19.40;;;13.23;;
35418;SDS011;21525;41.240;16.500;2024-02-04T13:58:18;21.00;;;12.23;;
35418;SDS011;21525;41.240;16.500;2024-02-04T14:00:44;18.67;;;12.98;;
35418;SDS011;21525;41.240;16.500;2024-02-04T14:03:10;19.90;;;12.75;;
35418;SDS011;21525;41.240;16.500;2024-02-04T14:05:38;24.35;;;12.73;;
35418;SDS011;21525;41.240;16.500;2024-02-04T14:08:05;19.88;;;12.98;;
35418;SDS011;21525;41.240;16.500;2024-02-04T14:10:32;22.20;;;13.18;;
35418;SDS011;21525;41.240;16.500;2024-02-04T14:12:57;21.73;;;12.40;;
35418;SDS011;21525;41.240;16.500;2024-02-04T14:15:23;20.60;;;13.27;;
35418;SDS011;21525;41.240;16.500;2024-02-04T14:17:49;20.52;;;12.75;;
35418;SDS011;21525;41.240;16.500;2024-02-04T14:20:15;20.20;;;12.90;;
35418;SDS011;21525;41.240;16.500;2024-02-04T14:22:40;22.30;;;13.32;;
35418;SDS011;21525;41.240;16.500;2024-02-04T14:25:06;18.35;;;12.00;;